createdAt,value
2023-08-23T00:03:29.416Z,60.06
2023-08-23T00:08:36.741Z,60.01
2023-08-23T00:13:43.710Z,59.88
2023-08-23T00:18:52.482Z,59.74
2023-08-23T00:24:00.115Z,59.97
2023-08-23T00:29:07.412Z,59.87
2023-08-23T00:34:14.800Z,59.82
2023-08-23T00:39:22.122Z,59.75
2023-08-23T00:44:29.430Z,59.94
2023-08-23T00:49:36.974Z,59.83
2023-08-23T00:54:44.528Z,59.83
2023-08-23T00:59:52.090Z,59.99
2023-08-23T01:04:59.473Z,59.82
2023-08-23T01:10:16.518Z,59.89
2023-08-23T01:15:25.202Z,59.87
2023-08-23T01:20:32.672Z,59.77
2023-08-23T01:25:39.842Z,59.82
2023-08-23T01:30:47.451Z,59.99
2023-08-23T01:35:59.332Z,59.88
2023-08-23T01:41:06.573Z,59.99
2023-08-23T01:46:13.789Z,59.91
2023-08-23T01:51:20.850Z,59.97
2023-08-23T01:56:28.384Z,60.03
2023-08-23T02:01:35.623Z,60.04
2023-08-23T02:06:42.657Z,59.80
2023-08-23T02:11:50.155Z,60.12
2023-08-23T02:16:57.493Z,59.99
2023-08-23T02:22:04.881Z,60.05
2023-08-23T02:27:12.015Z,59.90
2023-08-23T02:32:18.999Z,60.01
2023-08-23T02:37:26.230Z,60.00
2023-08-23T02:42:33.732Z,59.94
2023-08-23T02:47:41.463Z,59.84
2023-08-23T02:52:48.925Z,59.88
2023-08-23T02:57:56.470Z,59.92
2023-08-23T03:03:03.642Z,60.04
2023-08-23T03:08:11.035Z,59.81
2023-08-23T03:13:18.293Z,59.94
2023-08-23T03:18:25.707Z,60.09
2023-08-23T03:23:33.432Z,59.91
2023-08-23T03:28:40.843Z,60.03
2023-08-23T03:33:48.445Z,59.92
2023-08-23T03:38:55.696Z,60.07
2023-08-23T03:44:02.872Z,59.73
2023-08-23T03:49:10.132Z,60.00
2023-08-23T03:54:18.076Z,60.13
2023-08-23T03:59:25.323Z,59.95
2023-08-23T04:04:32.996Z,59.83
2023-08-23T04:09:41.926Z,59.99
2023-08-23T04:14:49.444Z,60.08
2023-08-23T04:19:56.581Z,59.97
2023-08-23T04:25:03.860Z,60.08
2023-08-23T04:30:11.951Z,59.87
2023-08-23T04:35:19.200Z,60.06
2023-08-23T04:40:26.609Z,60.03
2023-08-23T04:45:34.096Z,60.05
2023-08-23T04:50:41.390Z,60.02
2023-08-23T04:55:48.676Z,60.06
2023-08-23T05:00:56.326Z,59.96
2023-08-23T05:06:04.280Z,59.90
2023-08-23T05:11:11.811Z,59.89
2023-08-23T05:16:19.273Z,59.89
2023-08-23T05:21:26.628Z,60.09
2023-08-23T05:26:33.900Z,59.96
2023-08-23T05:31:41.210Z,59.92
2023-08-23T05:36:48.460Z,60.07
2023-08-23T05:41:56.198Z,59.93
2023-08-23T05:47:03.316Z,60.14
2023-08-23T05:52:10.470Z,59.93
2023-08-23T05:57:18.092Z,59.96
2023-08-23T06:02:25.362Z,60.10
2023-08-23T06:07:32.803Z,60.13
2023-08-23T06:12:40.049Z,60.02
2023-08-23T06:17:47.437Z,59.99
2023-08-23T06:22:54.980Z,59.82
2023-08-23T06:28:01.875Z,60.03
2023-08-23T06:33:09.891Z,59.92
2023-08-23T06:38:17.561Z,59.92
2023-08-23T06:43:27.922Z,59.84
2023-08-23T06:48:35.179Z,60.11
2023-08-23T06:53:42.472Z,60.12
2023-08-23T06:58:49.399Z,60.01
2023-08-23T07:03:56.942Z,59.95
2023-08-23T07:09:05.375Z,59.85
2023-08-23T07:14:12.840Z,60.00
2023-08-23T07:19:20.003Z,59.82
2023-08-23T07:24:27.200Z,59.77
2023-08-23T07:29:34.332Z,59.90
2023-08-23T07:34:41.528Z,59.76
2023-08-23T07:39:48.993Z,59.82
2023-08-23T07:44:56.738Z,59.78
2023-08-23T07:50:05.279Z,59.84
2023-08-23T07:55:13.134Z,59.67
2023-08-23T08:00:21.853Z,59.79
2023-08-23T08:05:29.162Z,59.65
2023-08-23T08:10:36.625Z,59.68
2023-08-23T08:15:43.963Z,59.67
2023-08-23T08:20:51.672Z,59.74
2023-08-23T08:25:58.992Z,59.78
2023-08-23T08:31:06.469Z,59.63
2023-08-23T08:36:14.109Z,59.62
2023-08-23T08:41:21.514Z,59.70
2023-08-23T08:46:28.724Z,59.71
2023-08-23T08:51:38.634Z,59.58
2023-08-23T08:56:47.492Z,59.79
2023-08-23T09:01:56.624Z,59.77
2023-08-23T09:07:04.183Z,59.65
2023-08-23T09:12:11.967Z,59.71
2023-08-23T09:17:19.251Z,59.62
2023-08-23T09:22:27.001Z,59.48
2023-08-23T09:27:51.504Z,59.52
2023-08-23T09:33:00.005Z,59.38
2023-08-23T09:38:08.112Z,59.72
2023-08-23T09:43:16.110Z,59.44
2023-08-23T09:48:25.464Z,59.74
2023-08-23T09:53:39.379Z,59.43
2023-08-23T09:58:48.481Z,59.75
2023-08-23T10:03:55.871Z,59.76
2023-08-23T10:09:04.927Z,59.64
2023-08-23T10:14:12.416Z,59.52
2023-08-23T10:19:19.911Z,59.70
2023-08-23T10:24:30.462Z,59.47
2023-08-23T10:29:40.364Z,59.63
2023-08-23T10:34:47.946Z,59.71
2023-08-23T10:39:56.152Z,59.71
2023-08-23T10:45:07.912Z,59.57
2023-08-23T10:50:15.297Z,59.66
2023-08-23T10:55:23.211Z,59.58
2023-08-23T11:00:31.655Z,59.42
2023-08-23T11:05:39.090Z,59.53
2023-08-23T11:10:46.464Z,59.47
2023-08-23T11:15:53.929Z,59.59
2023-08-23T11:21:01.891Z,59.40
2023-08-23T11:26:09.101Z,59.49
2023-08-23T11:31:16.447Z,59.54
2023-08-23T11:36:24.311Z,59.57
2023-08-23T11:41:32.078Z,59.82
2023-08-23T11:46:40.880Z,59.74
2023-08-23T11:51:51.471Z,59.56
2023-08-23T11:57:01.184Z,59.73
2023-08-23T12:02:08.795Z,59.79
2023-08-23T12:07:16.212Z,59.54
2023-08-23T12:12:24.153Z,59.80
2023-08-23T12:17:31.841Z,59.70
2023-08-23T12:22:39.340Z,59.60
2023-08-23T12:27:47.057Z,59.89
2023-08-23T12:32:54.581Z,59.78
2023-08-23T12:38:02.012Z,59.67
2023-08-23T12:43:09.984Z,59.66
2023-08-23T12:48:18.088Z,59.98
2023-08-23T12:53:25.549Z,59.82
2023-08-23T12:58:32.637Z,59.86
2023-08-23T13:03:39.538Z,59.97
2023-08-23T13:08:47.080Z,59.86
2023-08-23T13:13:54.726Z,59.74
2023-08-23T13:19:01.919Z,59.88
2023-08-23T13:24:10.711Z,59.68
2023-08-23T13:29:18.014Z,59.78
2023-08-23T13:34:25.513Z,59.88
2023-08-23T13:39:32.861Z,59.64
2023-08-23T13:44:40.201Z,59.81
2023-08-23T13:49:47.476Z,59.23
2023-08-23T13:54:54.546Z,59.04
2023-08-23T14:00:02.008Z,58.93
2023-08-23T14:05:09.929Z,58.85
2023-08-23T14:10:17.283Z,58.79
2023-08-23T14:15:24.191Z,58.68
2023-08-23T14:20:31.230Z,58.59
2023-08-23T14:25:38.348Z,58.75
2023-08-23T14:30:45.918Z,58.64
2023-08-23T14:35:53.214Z,58.57
2023-08-23T14:41:00.749Z,58.63
2023-08-23T14:46:08.254Z,58.55
2023-08-23T14:51:15.521Z,58.60
2023-08-23T14:56:22.523Z,58.43
2023-08-23T15:01:29.956Z,58.36
2023-08-23T15:06:37.318Z,58.40
2023-08-23T15:11:44.813Z,58.34
2023-08-23T15:16:52.229Z,58.16
2023-08-23T15:21:59.998Z,58.20
2023-08-23T15:27:07.668Z,58.30
2023-08-23T15:32:15.081Z,58.03
2023-08-23T15:37:23.073Z,57.99
2023-08-23T15:42:30.543Z,57.95
2023-08-23T15:47:37.834Z,57.99
2023-08-23T15:52:45.463Z,57.91
2023-08-23T15:57:52.983Z,57.83
2023-08-23T16:03:00.585Z,58.04
2023-08-23T16:08:08.905Z,57.90
2023-08-23T16:13:16.074Z,57.84
2023-08-23T16:18:23.469Z,57.82
2023-08-23T16:23:30.715Z,57.86
2023-08-23T16:28:37.981Z,57.80
2023-08-23T16:33:45.303Z,57.99
2023-08-23T16:38:52.788Z,57.77
2023-08-23T16:44:00.117Z,57.72
2023-08-23T16:49:07.525Z,57.78
2023-08-23T16:54:14.730Z,57.71
2023-08-23T16:59:21.968Z,57.74
2023-08-23T17:04:31.191Z,57.80
2023-08-23T17:09:39.000Z,57.88
2023-08-23T17:14:46.235Z,57.75
2023-08-23T17:19:53.760Z,57.68
2023-08-23T17:25:01.721Z,57.87
2023-08-23T17:30:10.195Z,57.76
2023-08-23T17:35:17.815Z,57.78
2023-08-23T17:40:25.410Z,57.73
2023-08-23T17:45:32.732Z,57.70
2023-08-23T17:50:39.941Z,57.54
2023-08-23T17:55:47.391Z,57.65
2023-08-23T18:00:54.817Z,57.69
2023-08-23T18:06:02.464Z,57.46
2023-08-23T18:11:10.164Z,57.63
2023-08-23T18:16:17.500Z,57.52
2023-08-23T18:21:27.246Z,57.63
2023-08-23T18:26:35.175Z,57.59
2023-08-23T18:31:42.554Z,57.57
2023-08-23T18:36:50.025Z,57.53
2023-08-23T18:41:57.121Z,57.54
2023-08-23T18:47:04.753Z,57.55
2023-08-23T18:52:12.141Z,57.60
2023-08-23T18:57:19.738Z,57.53
2023-08-23T19:02:27.255Z,57.71
2023-08-23T19:07:36.304Z,57.61
2023-08-23T19:12:43.230Z,57.54
2023-08-23T19:17:54.184Z,57.37
2023-08-23T19:23:01.462Z,57.51
2023-08-23T19:28:08.821Z,57.50
2023-08-23T19:33:16.019Z,57.54
2023-08-23T19:38:23.290Z,57.33
2023-08-23T19:43:30.580Z,57.47
2023-08-23T19:48:38.433Z,57.44
2023-08-23T19:53:45.652Z,57.52
2023-08-23T19:58:53.030Z,57.45
2023-08-23T20:04:00.481Z,57.43
2023-08-23T20:09:08.001Z,57.44
2023-08-23T20:14:15.359Z,57.48
2023-08-23T20:19:22.842Z,57.49
2023-08-23T20:24:30.111Z,57.34
2023-08-23T20:29:37.870Z,57.60
2023-08-23T20:34:45.312Z,57.38
2023-08-23T20:39:52.761Z,57.54
2023-08-23T20:45:00.095Z,57.33
2023-08-23T20:50:08.082Z,57.54
2023-08-23T20:55:15.400Z,57.27
2023-08-23T21:00:22.855Z,57.32
2023-08-23T21:05:32.223Z,57.52
2023-08-23T21:10:42.430Z,57.28
2023-08-23T21:15:50.620Z,57.36
2023-08-23T21:20:58.053Z,57.51
2023-08-23T21:26:05.490Z,57.31
2023-08-23T21:31:12.851Z,57.51
2023-08-23T21:36:20.636Z,57.56
2023-08-23T21:41:28.074Z,57.28
2023-08-23T21:46:35.666Z,57.45
2023-08-23T21:51:42.847Z,57.52
2023-08-23T21:56:50.497Z,57.40
2023-08-23T22:01:57.981Z,57.25
2023-08-23T22:07:05.257Z,57.48
2023-08-23T22:12:12.647Z,57.46
2023-08-23T22:17:20.078Z,57.36
2023-08-23T22:22:27.615Z,57.49
2023-08-23T22:27:35.090Z,57.42
2023-08-23T22:32:42.272Z,57.42
2023-08-23T22:37:52.235Z,57.53
2023-08-23T22:42:59.464Z,57.47
2023-08-23T22:48:07.290Z,57.40
2023-08-23T22:53:14.586Z,57.40
2023-08-23T22:58:21.994Z,57.48
2023-08-23T23:03:29.589Z,57.60
2023-08-23T23:08:38.301Z,57.49
2023-08-23T23:13:45.680Z,57.53
2023-08-23T23:18:52.872Z,57.44
2023-08-23T23:24:00.212Z,57.54
2023-08-23T23:29:07.522Z,57.38
2023-08-23T23:34:15.283Z,57.44
2023-08-23T23:39:23.574Z,57.59
2023-08-23T23:44:30.871Z,57.61
2023-08-23T23:49:38.442Z,57.39
2023-08-23T23:54:45.763Z,57.62
2023-08-23T23:59:53.173Z,57.47
